Time;durP1;ratioP1;P1;durP2;ratioP2;P2;SDS_P1;SDS_P2;PMS_P1;PMS_P2;Temp;Humidity;BMP_temperature;BMP_pressure;BME280_temperature;BME280_humidity;BME280_pressure;Samples;Min_cycle;Max_cycle;Signal;HPM_P1;HPM_P2
2022/09/13 00:01:35;;;;;;;9.47;6.57;;;16.10;99.90;;;;;;5048061;28;20290;-62
2022/09/13 00:04:03;;;;;;;8.03;6.43;;;16.10;99.90;;;;;;5049946;28;20207;-62
2022/09/13 00:06:30;;;;;;;8.63;6.03;;;16.10;99.90;;;;;;5048807;28;20207;-61
2022/09/13 00:08:57;;;;;;;7.50;5.93;;;16.20;99.90;;;;;;5047302;28;20200;-61
2022/09/13 00:11:26;;;;;;;7.30;6.15;;;16.30;99.90;;;;;;5046287;28;20199;-62
2022/09/13 00:13:55;;;;;;;7.72;5.82;;;16.30;99.90;;;;;;5045786;28;20590;-62
2022/09/13 00:16:24;;;;;;;7.73;5.30;;;16.30;99.90;;;;;;5045505;28;20593;-61
2022/09/13 00:18:52;;;;;;;5.93;5.32;;;16.40;99.90;;;;;;5028828;28;20194;-61
2022/09/13 00:21:21;;;;;;;10.43;6.33;;;16.40;99.90;;;;;;5043664;28;20295;-62
2022/09/13 00:23:51;;;;;;;6.50;5.90;;;16.40;61.20;;;;;;5047483;28;20275;-62
2022/09/13 00:26:26;;;;;;;8.60;6.40;;;16.40;47.80;;;;;;5045339;28;20198;-61
2022/09/13 00:28:56;;;;;;;6.30;5.75;;;16.40;61.90;;;;;;5040400;28;20601;-61
2022/09/13 00:31:26;;;;;;;6.18;5.57;;;16.40;40.40;;;;;;5048091;28;20192;-61
2022/09/13 00:33:54;;;;;;;8.85;6.15;;;16.40;52.70;;;;;;5047501;28;20270;-62
2022/09/13 00:36:21;;;;;;;9.13;6.20;;;16.40;20.60;;;;;;5048022;28;20433;-62
2022/09/13 00:38:47;;;;;;;9.43;6.32;;;16.30;46.00;;;;;;5014011;28;20199;-63
2022/09/13 00:41:17;;;;;;;6.03;5.43;;;16.30;98.10;;;;;;5045834;28;20274;-62
2022/09/13 00:43:47;;;;;;;6.07;5.47;;;16.30;99.90;;;;;;5045894;28;20203;-62
2022/09/13 00:46:29;;;;;;;7.55;5.50;;;16.40;99.90;;;;;;5044171;28;20265;-62
2022/09/13 00:49:08;;;;;;;7.78;5.13;;;16.40;99.90;;;;;;5045187;28;20225;-62
2022/09/13 00:51:36;;;;;;;5.85;5.25;;;16.50;99.90;;;;;;5023232;28;20203;-62
2022/09/13 00:54:04;;;;;;;11.55;7.78;;;16.50;99.90;;;;;;5032483;28;20188;-62
2022/09/13 00:56:36;;;;;;;6.78;5.55;;;16.50;99.90;;;;;;5042448;28;20271;-63
2022/09/13 00:59:14;;;;;;;9.27;8.18;;;16.60;99.70;;;;;;5040857;28;20180;-63
2022/09/13 01:01:51;;;;;;;13.05;11.70;;;16.50;99.90;;;;;;5043441;28;20546;-62
2022/09/13 01:04:20;;;;;;;13.70;11.95;;;16.60;99.90;;;;;;5029539;28;20202;-62
2022/09/13 01:06:48;;;;;;;11.23;9.60;;;16.60;99.90;;;;;;5028286;28;20294;-62
2022/09/13 01:09:15;;;;;;;11.23;10.05;;;16.60;96.90;;;;;;5043637;28;20184;-62
2022/09/13 01:11:54;;;;;;;11.95;10.80;;;16.60;67.70;;;;;;5043928;28;20219;-62
2022/09/13 01:14:22;;;;;;;8.65;6.97;;;16.60;94.30;;;;;;5025477;28;20231;-62
2022/09/13 01:16:51;;;;;;;13.43;12.10;;;16.50;97.00;;;;;;5038814;28;20427;-62
2022/09/13 01:19:18;;;;;;;10.95;9.85;;;16.60;99.90;;;;;;5042291;28;20191;-61
2022/09/13 01:22:23;;;;;;;7.27;6.57;;;16.50;99.90;;;;;;5042280;28;20195;-62
2022/09/13 01:25:12;;;;;;;9.90;8.32;;;16.50;99.90;;;;;;5042420;28;20265;-62
2022/09/13 01:28:27;;;;;;;12.82;9.63;;;16.60;99.90;;;;;;5042844;28;20192;-62
2022/09/13 01:31:12;;;;;;;10.70;9.25;;;16.70;99.40;;;;;;5017895;28;20206;-62
2022/09/13 01:34:05;;;;;;;12.73;11.43;;;16.70;77.70;;;;;;5037459;28;20218;-62
2022/09/13 01:36:45;;;;;;;10.35;9.27;;;16.70;99.90;;;;;;5043650;28;20658;-61
2022/09/13 01:39:30;;;;;;;11.82;10.20;;;16.70;93.10;;;;;;5044193;28;20274;-62
2022/09/13 01:42:31;;;;;;;10.45;9.45;;;16.70;99.90;;;;;;5040688;28;20207;-60
2022/09/13 01:45:31;;;;;;;8.00;6.95;;;16.80;99.90;;;;;;5024664;28;20211;-61
2022/09/13 01:48:08;;;;;;;9.35;7.53;;;16.80;96.40;;;;;;5038730;28;20221;-61
2022/09/13 01:50:46;;;;;;;7.57;6.88;;;16.90;92.80;;;;;;5010186;28;20191;-61
2022/09/13 01:53:38;;;;;;;6.47;5.85;;;16.90;70.20;;;;;;5024813;28;20230;-61
2022/09/13 01:56:30;;;;;;;7.53;6.78;;;16.90;42.10;;;;;;5042346;28;20447;-61
2022/09/13 01:59:12;;;;;;;6.35;5.75;;;17.00;63.90;;;;;;5037066;28;20686;-62
2022/09/13 02:01:55;;;;;;;6.47;5.75;;;17.00;6.00;;;;;;5029825;28;20215;-61
2022/09/13 02:04:26;;;;;;;6.00;5.40;;;17.00;6.30;;;;;;5030781;28;20223;-62
2022/09/13 02:07:02;;;;;;;6.45;5.72;;;17.00;16.70;;;;;;5047947;28;20211;-62
2022/09/13 02:09:36;;;;;;;6.00;5.40;;;17.00;33.70;;;;;;5043951;28;20624;-62
2022/09/13 02:12:09;;;;;;;6.60;5.43;;;17.00;28.70;;;;;;5042476;28;20200;-62
2022/09/13 02:14:39;;;;;;;6.22;5.55;;;17.00;12.90;;;;;;5049236;28;20239;-62
2022/09/13 02:17:14;;;;;;;6.10;5.50;;;17.00;8.90;;;;;;5049520;28;20235;-62
2022/09/13 02:20:02;;;;;;;7.22;6.10;;;17.10;26.50;;;;;;5050053;28;20205;-62
2022/09/13 02:22:38;;;;;;;7.43;6.18;;;17.00;28.80;;;;;;5049693;28;20234;-62
2022/09/13 02:25:11;;;;;;;5.95;5.32;;;17.00;62.40;;;;;;5048903;28;20215;-62
2022/09/13 02:27:40;;;;;;;6.82;5.97;;;17.00;86.20;;;;;;5028939;28;20196;-62
2022/09/13 02:30:10;;;;;;;9.50;5.85;;;17.00;70.70;;;;;;5046503;28;20202;-61
2022/09/13 02:32:56;;;;;;;6.25;5.05;;;17.00;92.70;;;;;;5045416;28;20207;-62
2022/09/13 02:35:33;;;;;;;7.75;5.85;;;17.00;99.90;;;;;;5048627;28;20620;-61
2022/09/13 02:38:08;;;;;;;6.57;5.93;;;17.00;99.90;;;;;;5045731;28;20199;-62
2022/09/13 02:40:45;;;;;;;8.05;5.45;;;17.10;95.00;;;;;;5020263;28;20557;-62
2022/09/13 02:43:38;;;;;;;6.32;5.35;;;17.10;99.90;;;;;;5046457;28;20187;-62
2022/09/13 02:46:41;;;;;;;6.38;5.75;;;17.10;68.20;;;;;;5045330;28;20214;-60
2022/09/13 02:49:33;;;;;;;6.50;5.78;;;17.10;79.70;;;;;;5044961;28;20290;-59
2022/09/13 02:52:09;;;;;;;7.65;6.03;;;17.10;99.90;;;;;;5045477;28;20227;-60
2022/09/13 02:54:44;;;;;;;5.75;5.25;;;17.10;99.90;;;;;;5048534;28;20205;-60
2022/09/13 02:57:24;;;;;;;7.13;5.53;;;17.10;99.90;;;;;;5028517;28;20286;-60
2022/09/13 02:59:51;;;;;;;8.27;5.13;;;17.10;99.90;;;;;;5046725;28;20210;-60
2022/09/13 03:02:24;;;;;;;5.90;5.40;;;17.10;99.90;;;;;;5044137;28;20664;-60
2022/09/13 03:04:51;;;;;;;6.10;5.50;;;17.10;99.90;;;;;;5046122;28;20556;-60
2022/09/13 03:07:18;;;;;;;6.53;5.40;;;17.20;99.90;;;;;;5043850;28;20204;-59
2022/09/13 03:09:52;;;;;;;8.63;5.60;;;17.20;99.90;;;;;;5027823;28;20234;-58
2022/09/13 03:12:51;;;;;;;5.55;5.00;;;17.20;99.90;;;;;;5044827;28;20238;-59
2022/09/13 03:15:35;;;;;;;7.97;6.18;;;17.20;99.90;;;;;;5034732;28;20805;-59
2022/09/13 03:18:28;;;;;;;6.35;5.75;;;17.10;99.90;;;;;;5048922;28;20253;-58
2022/09/13 03:21:17;;;;;;;7.43;5.93;;;17.00;1.00;;;;;;5049413;28;20234;-61
2022/09/13 03:23:50;;;;;;;7.88;5.78;;;17.10;1.00;;;;;;5028274;28;20261;-60
2022/09/13 03:26:55;;;;;;;7.38;5.53;;;17.10;1.00;;;;;;5047511;28;20279;-61
2022/09/13 03:29:55;;;;;;;7.45;6.20;;;17.10;1.00;;;;;;5040799;28;21102;-60
2022/09/13 03:32:56;;;;;;;6.72;6.03;;;17.20;1.00;;;;;;5045610;28;20190;-60
2022/09/13 03:35:31;;;;;;;6.13;5.50;;;17.10;1.00;;;;;;5048193;28;20266;-60
2022/09/13 03:38:25;;;;;;;6.70;6.03;;;17.10;1.00;;;;;;5026574;28;20230;-59
2022/09/13 03:41:16;;;;;;;7.28;5.75;;;17.10;1.00;;;;;;5045374;28;20761;-59
2022/09/13 03:43:45;;;;;;;7.88;6.70;;;17.00;1.00;;;;;;5047749;28;20293;-59
2022/09/13 03:46:37;;;;;;;10.18;6.57;;;16.80;1.00;;;;;;5049291;28;20208;-59
2022/09/13 03:49:09;;;;;;;6.55;5.88;;;16.70;1.00;;;;;;5049107;28;20191;-59
2022/09/13 03:51:37;;;;;;;10.50;5.53;;;16.80;1.00;;;;;;5028631;28;20226;-60
2022/09/13 03:54:07;;;;;;;7.20;5.85;;;16.80;1.00;;;;;;5029266;28;20214;-59
2022/09/13 03:56:34;;;;;;;7.25;5.82;;;16.90;1.00;;;;;;5027655;28;20203;-59
2022/09/13 03:59:02;;;;;;;6.72;4.78;;;16.90;1.00;;;;;;5046059;28;20211;-59
2022/09/13 04:01:29;;;;;;;6.05;5.35;;;16.90;99.90;;;;;;5043289;28;20191;-59
2022/09/13 04:03:57;;;;;;;6.82;4.65;;;17.00;99.90;;;;;;5046100;28;20187;-59
2022/09/13 04:06:24;;;;;;;6.32;4.50;;;17.10;1.00;;;;;;5044693;28;20314;-59
2022/09/13 04:08:51;;;;;;;5.65;4.47;;;17.20;1.00;;;;;;5030041;28;20203;-59
2022/09/13 04:11:20;;;;;;;7.28;4.38;;;17.30;1.00;;;;;;5044199;28;20195;-59
2022/09/13 04:13:47;;;;;;;4.57;4.18;;;17.30;1.00;;;;;;5048010;28;20232;-59
2022/09/13 04:16:14;;;;;;;7.80;4.18;;;17.40;1.00;;;;;;5046688;28;20237;-59
2022/09/13 04:18:41;;;;;;;4.55;3.33;;;17.50;1.00;;;;;;5046102;28;20195;-59
2022/09/13 04:21:08;;;;;;;4.00;3.60;;;17.60;1.00;;;;;;5044760;28;20686;-59
2022/09/13 04:23:35;;;;;;;4.20;3.80;;;17.70;1.00;;;;;;5043753;28;20233;-60
2022/09/13 04:26:03;;;;;;;4.05;3.63;;;17.70;1.00;;;;;;5046339;28;20234;-61
2022/09/13 04:28:30;;;;;;;3.80;3.20;;;17.70;1.00;;;;;;5028813;28;20211;-60
2022/09/13 04:30:57;;;;;;;3.72;3.15;;;17.70;1.00;;;;;;5023590;28;20203;-60
2022/09/13 04:33:24;;;;;;;4.43;3.30;;;17.80;99.90;;;;;;5040482;28;20227;-59
2022/09/13 04:35:58;;;;;;;3.92;3.17;;;17.80;99.90;;;;;;5027339;28;20330;-58
2022/09/13 04:38:26;;;;;;;4.22;3.83;;;17.90;99.90;;;;;;5042582;28;23429;-59
2022/09/13 04:40:54;;;;;;;6.07;3.85;;;17.90;1.00;;;;;;5044547;28;20215;-58
2022/09/13 04:43:22;;;;;;;3.50;3.20;;;17.80;99.90;;;;;;5041962;28;20236;-60
2022/09/13 04:45:49;;;;;;;4.55;3.30;;;17.90;99.90;;;;;;5043352;28;20291;-60
2022/09/13 04:48:16;;;;;;;5.65;3.28;;;17.90;99.90;;;;;;5041881;28;20276;-61
2022/09/13 04:50:43;;;;;;;4.97;3.08;;;17.90;99.90;;;;;;5044841;28;20211;-59
2022/09/13 04:53:11;;;;;;;3.67;3.00;;;18.00;99.90;;;;;;5046814;28;20199;-59
2022/09/13 04:55:38;;;;;;;3.55;3.25;;;18.10;99.90;;;;;;5047960;28;20210;-59
2022/09/13 04:58:05;;;;;;;4.85;3.13;;;18.00;99.90;;;;;;5045491;28;20709;-60
2022/09/13 05:00:32;;;;;;;7.47;2.92;;;18.10;99.90;;;;;;5046528;28;20203;-60
2022/09/13 05:02:59;;;;;;;3.28;2.97;;;18.10;99.90;;;;;;5044212;28;20188;-60
2022/09/13 05:05:27;;;;;;;3.17;2.58;;;18.10;99.90;;;;;;5043293;28;20215;-60
2022/09/13 05:07:54;;;;;;;4.32;3.20;;;18.10;99.90;;;;;;5042568;28;20206;-60
2022/09/13 05:10:21;;;;;;;2.90;2.63;;;18.10;99.90;;;;;;5025863;28;20187;-59
2022/09/13 05:12:48;;;;;;;4.80;2.65;;;18.10;99.90;;;;;;5043335;28;20195;-60
2022/09/13 05:15:15;;;;;;;5.60;4.30;;;18.10;99.90;;;;;;5044647;28;20233;-58
2022/09/13 05:17:42;;;;;;;3.55;2.95;;;18.10;99.90;;;;;;5044382;28;20201;-58
2022/09/13 05:20:10;;;;;;;4.90;3.25;;;18.10;99.90;;;;;;5043376;28;20210;-59
2022/09/13 05:22:37;;;;;;;6.70;3.55;;;18.00;99.90;;;;;;5046584;28;20849;-59
2022/09/13 05:25:05;;;;;;;6.65;3.03;;;18.10;99.90;;;;;;5048436;28;20199;-59
2022/09/13 05:27:32;;;;;;;4.15;3.35;;;18.10;99.90;;;;;;5043905;28;20356;-59
2022/09/13 05:29:59;;;;;;;4.13;3.65;;;18.20;99.90;;;;;;5028632;28;20195;-59
2022/09/13 05:32:26;;;;;;;5.88;3.70;;;18.20;99.90;;;;;;5042497;28;20566;-61
2022/09/13 05:34:53;;;;;;;8.25;3.70;;;18.20;99.90;;;;;;5032759;28;20278;-61
2022/09/13 05:37:20;;;;;;;4.80;3.30;;;18.20;99.90;;;;;;5051963;28;20214;-60
2022/09/13 05:39:47;;;;;;;9.32;4.38;;;18.20;99.90;;;;;;5047021;28;20202;-60
2022/09/13 05:42:34;;;;;;;7.00;4.40;;;18.30;99.90;;;;;;5049608;28;20688;-60
2022/09/13 05:45:01;;;;;;;6.10;3.83;;;18.30;99.90;;;;;;5047935;28;20199;-60
2022/09/13 05:47:28;;;;;;;9.82;4.47;;;18.20;99.90;;;;;;5015453;28;20230;-60
2022/09/13 05:49:55;;;;;;;7.32;4.28;;;18.30;99.90;;;;;;5030095;28;20611;-60
2022/09/13 05:52:36;;;;;;;7.55;4.60;;;18.30;99.90;;;;;;5032940;28;20755;-60
2022/09/13 05:55:03;;;;;;;7.07;4.28;;;18.30;99.90;;;;;;5045928;28;20279;-60
2022/09/13 05:57:30;;;;;;;10.32;4.45;;;18.40;99.90;;;;;;5047090;28;20273;-60
2022/09/13 05:59:57;;;;;;;6.80;4.95;;;18.40;99.90;;;;;;5048007;28;20286;-60
2022/09/13 06:02:24;;;;;;;14.35;4.93;;;18.40;99.90;;;;;;5047851;28;21528;-62
2022/09/13 06:04:51;;;;;;;10.35;5.32;;;18.40;99.90;;;;;;5041061;28;20199;-62
2022/09/13 06:07:18;;;;;;;12.07;5.50;;;18.40;99.90;;;;;;5037813;28;20273;-61
2022/09/13 06:09:45;;;;;;;9.13;4.78;;;18.40;99.90;;;;;;5047604;28;20230;-60
2022/09/13 06:12:12;;;;;;;11.63;5.10;;;18.40;99.90;;;;;;5027863;28;20560;-62
2022/09/13 06:14:39;;;;;;;8.38;4.65;;;18.40;99.90;;;;;;5037129;28;20228;-59
2022/09/13 06:17:06;;;;;;;9.52;5.47;;;18.40;99.90;;;;;;5046368;28;20880;-60
2022/09/13 06:19:33;;;;;;;11.00;5.07;;;18.40;99.90;;;;;;5044833;28;20213;-59
2022/09/13 06:22:00;;;;;;;14.13;5.53;;;18.50;99.90;;;;;;5046466;28;20203;-60
2022/09/13 06:24:27;;;;;;;14.23;5.75;;;18.50;99.90;;;;;;5048292;28;20195;-60
2022/09/13 06:26:54;;;;;;;11.82;5.97;;;18.50;99.90;;;;;;5045679;28;20219;-61
2022/09/13 06:29:20;;;;;;;14.93;9.13;;;18.50;99.90;;;;;;5046524;28;20601;-60
2022/09/13 06:31:47;;;;;;;13.35;8.95;;;18.50;99.90;;;;;;5047138;28;20207;-60
2022/09/13 06:34:16;;;;;;;12.18;10.15;;;18.50;99.90;;;;;;5047702;28;20199;-60
2022/09/13 06:36:43;;;;;;;15.18;10.95;;;18.60;99.90;;;;;;5049773;28;20200;-60
2022/09/13 06:39:10;;;;;;;12.13;9.35;;;18.60;99.90;;;;;;5048199;28;20215;-60
2022/09/13 06:41:37;;;;;;;6.63;4.88;;;18.60;99.90;;;;;;5047488;28;20204;-60
2022/09/13 06:44:04;;;;;;;11.23;8.30;;;18.60;99.90;;;;;;5044947;28;20208;-60
2022/09/13 06:46:33;;;;;;;5.93;4.90;;;18.60;99.90;;;;;;5030343;28;20694;-60
2022/09/13 06:49:05;;;;;;;9.75;6.47;;;18.70;99.90;;;;;;5048709;28;21054;-60
2022/09/13 06:51:34;;;;;;;8.65;5.30;;;18.70;99.90;;;;;;5048026;28;20667;-61
2022/09/13 06:54:03;;;;;;;7.95;4.70;;;18.90;99.90;;;;;;5046883;28;20728;-59
2022/09/13 06:56:33;;;;;;;7.38;4.32;;;19.00;99.90;;;;;;5046305;28;20211;-60
2022/09/13 06:59:03;;;;;;;6.63;4.03;;;19.20;99.90;;;;;;5047310;28;20195;-59
2022/09/13 07:01:36;;;;;;;5.38;3.85;;;19.40;99.90;;;;;;5028532;28;20268;-60
2022/09/13 07:04:06;;;;;;;9.25;3.88;;;19.50;99.90;;;;;;5049842;28;20204;-60
2022/09/13 07:06:36;;;;;;;4.63;3.45;;;19.60;99.90;;;;;;5031027;28;20607;-60
2022/09/13 07:09:06;;;;;;;11.05;4.28;;;19.80;99.90;;;;;;5046449;28;20192;-62
2022/09/13 07:11:37;;;;;;;4.88;3.80;;;20.10;99.90;;;;;;5047142;28;20200;-62
2022/09/13 07:14:08;;;;;;;3.63;2.78;;;20.60;99.90;;;;;;5028048;28;20819;-62
2022/09/13 07:16:36;;;;;;;8.70;3.28;;;21.50;98.60;;;;;;5023772;28;20318;-65
2022/09/13 07:19:06;;;;;;;5.00;3.63;;;21.90;74.20;;;;;;5046593;28;21146;-61
2022/09/13 07:21:34;;;;;;;10.93;4.10;;;22.10;28.00;;;;;;5026213;28;20204;-62
2022/09/13 07:24:01;;;;;;;7.72;3.25;;;22.10;22.30;;;;;;5042485;28;20199;-61
2022/09/13 07:26:28;;;;;;;10.02;3.65;;;21.90;17.70;;;;;;5027074;28;21874;-62
2022/09/13 07:28:58;;;;;;;8.27;3.10;;;22.10;18.10;;;;;;5044212;28;20549;-62
2022/09/13 07:31:34;;;;;;;8.68;3.78;;;22.40;12.60;;;;;;5045875;28;20191;-60
2022/09/13 07:34:07;;;;;;;4.53;3.22;;;21.90;16.00;;;;;;5030788;28;20672;-62
2022/09/13 07:36:35;;;;;;;8.52;3.10;;;21.90;16.50;;;;;;5030346;28;20192;-61
2022/09/13 07:39:04;;;;;;;5.32;3.33;;;22.10;17.80;;;;;;5022251;28;20597;-62
2022/09/13 07:41:32;;;;;;;6.35;4.18;;;22.40;12.30;;;;;;5045650;28;20233;-59
2022/09/13 07:44:00;;;;;;;7.65;5.15;;;27.00;1.00;;;;;;5042437;28;20207;-63
2022/09/13 07:46:32;;;;;;;7.93;5.68;;;31.80;1.00;;;;;;5041885;28;20207;-64
2022/09/13 07:49:01;;;;;;;8.60;5.63;;;32.60;1.00;;;;;;5026345;28;20195;-62
2022/09/13 07:51:31;;;;;;;7.40;5.85;;;30.60;1.00;;;;;;5045761;28;20642;-63
2022/09/13 07:54:00;;;;;;;5.78;4.60;;;31.40;1.00;;;;;;5043960;28;20278;-61
2022/09/13 07:56:38;;;;;;;8.65;6.10;;;32.20;1.00;;;;;;5045917;28;20632;-61
2022/09/13 07:59:10;;;;;;;10.57;6.85;;;30.70;1.00;;;;;;5043951;28;20278;-61
2022/09/13 08:01:39;;;;;;;6.75;4.22;;;28.50;1.00;;;;;;5026423;28;20210;-61
2022/09/13 08:04:12;;;;;;;6.40;4.50;;;27.20;1.00;;;;;;5047154;28;20207;-63
2022/09/13 08:06:40;;;;;;;8.68;4.60;;;25.70;1.00;;;;;;5037145;28;20211;-63
2022/09/13 08:09:08;;;;;;;8.43;3.78;;;25.40;1.00;;;;;;5046205;28;20191;-63
2022/09/13 08:11:38;;;;;;;5.43;3.78;;;24.90;1.00;;;;;;5045496;28;20207;-62
2022/09/13 08:14:07;;;;;;;9.68;4.50;;;25.40;1.00;;;;;;5042129;28;20235;-65
2022/09/13 08:16:34;;;;;;;7.55;4.50;;;26.40;1.00;;;;;;5041843;28;20215;-62
2022/09/13 08:19:03;;;;;;;6.38;4.35;;;31.20;1.00;;;;;;5029000;28;20211;-63
2022/09/13 08:21:38;;;;;;;6.45;5.35;;;33.30;1.00;;;;;;5044390;28;20207;-65
2022/09/13 08:24:07;;;;;;;7.63;5.18;;;32.10;1.00;;;;;;5043501;28;20205;-63
2022/09/13 08:26:35;;;;;;;6.97;5.03;;;32.50;1.00;;;;;;5044259;28;20215;-63
2022/09/13 08:29:04;;;;;;;8.32;4.93;;;33.60;1.00;;;;;;5041416;28;20576;-62
2022/09/13 08:31:32;;;;;;;18.23;5.35;;;32.30;1.00;;;;;;5024459;28;20296;-63
2022/09/13 08:34:03;;;;;;;10.57;6.03;;;31.10;1.00;;;;;;5046189;28;20206;-65
2022/09/13 08:36:30;;;;;;;8.48;5.45;;;30.40;1.00;;;;;;5046182;28;20280;-62
2022/09/13 08:39:00;;;;;;;11.75;6.40;;;30.90;1.00;;;;;;5044603;28;20253;-63
2022/09/13 08:41:40;;;;;;;11.73;6.47;;;31.70;1.00;;;;;;5025679;28;20222;-62
2022/09/13 08:44:33;;;;;;;13.30;7.03;;;31.70;1.00;;;;;;5025927;28;20664;-60
2022/09/13 08:47:23;;;;;;;11.73;7.43;;;32.90;1.00;;;;;;5040005;28;20220;-61
2022/09/13 08:49:58;;;;;;;10.13;5.75;;;35.40;1.00;;;;;;5045448;28;20196;-62
2022/09/13 08:52:39;;;;;;;7.20;4.45;;;38.00;1.00;;;;;;5034493;28;20198;-59
2022/09/13 08:55:40;;;;;;;7.32;4.05;;;33.30;1.00;;;;;;5039779;28;20188;-61
2022/09/13 08:58:28;;;;;;;9.23;5.47;;;31.00;1.00;;;;;;5040849;28;20207;-61
2022/09/13 09:01:15;;;;;;;8.90;4.07;;;32.80;1.00;;;;;;5030599;28;20223;-62
2022/09/13 09:03:45;;;;;;;7.20;4.93;;;37.30;1.00;;;;;;5042421;28;20230;-62
2022/09/13 09:06:15;;;;;;;6.75;4.15;;;38.40;1.00;;;;;;5027205;28;20229;-60
2022/09/13 09:08:51;;;;;;;6.15;5.13;;;40.70;1.00;;;;;;5009474;28;20690;-62
2022/09/13 09:11:40;;;;;;;10.18;5.25;;;40.20;1.00;;;;;;5035751;28;20187;-61
2022/09/13 09:14:18;;;;;;;12.82;5.85;;;41.40;1.00;;;;;;5042818;28;20231;-61
2022/09/13 09:16:51;;;;;;;6.95;4.93;;;40.30;1.00;;;;;;5043595;28;20218;-62
2022/09/13 09:19:21;;;;;;;10.63;5.63;;;40.50;1.00;;;;;;5027656;28;20209;-61
2022/09/13 09:21:51;;;;;;;11.25;5.53;;;40.10;1.00;;;;;;5038415;28;20183;-61
2022/09/13 09:24:25;;;;;;;5.70;5.10;;;40.50;1.00;;;;;;5042714;28;20195;-64
2022/09/13 09:26:56;;;;;;;7.95;6.10;;;40.00;1.00;;;;;;5022734;28;20219;-61
2022/09/13 09:29:31;;;;;;;9.35;5.90;;;37.60;1.00;;;;;;5037683;28;20186;-61
2022/09/13 09:32:17;;;;;;;11.57;7.13;;;39.10;1.00;;;;;;5028606;28;20252;-62
2022/09/13 09:35:21;;;;;;;8.15;5.80;;;40.10;1.00;;;;;;5040447;28;20278;-63
2022/09/13 09:38:10;;;;;;;8.90;5.22;;;40.90;1.00;;;;;;5041049;28;20218;-63
2022/09/13 09:40:37;;;;;;;7.00;5.30;;;39.00;1.00;;;;;;5038625;28;20294;-63
2022/09/13 09:43:36;;;;;;;8.70;6.05;;;37.90;1.00;;;;;;5024239;28;20693;-63
2022/09/13 09:46:06;;;;;;;9.98;6.60;;;36.80;1.00;;;;;;5028783;28;20219;-62
2022/09/13 09:48:42;;;;;;;9.80;5.68;;;37.40;1.00;;;;;;5042785;28;20265;-62
2022/09/13 09:51:12;;;;;;;15.30;6.38;;;38.70;1.00;;;;;;5041363;28;20189;-62
2022/09/13 09:53:43;;;;;;;11.13;6.00;;;39.80;1.00;;;;;;5043408;28;20553;-63
2022/09/13 09:56:22;;;;;;;9.60;5.50;;;38.40;1.00;;;;;;5020807;28;20747;-62
2022/09/13 09:58:50;;;;;;;9.40;6.30;;;37.50;1.00;;;;;;5043683;28;21093;-63
2022/09/13 10:01:27;;;;;;;8.32;5.63;;;39.10;1.00;;;;;;5025551;28;20206;-62
2022/09/13 10:04:09;;;;;;;7.22;5.88;;;39.80;1.00;;;;;;5043972;28;20195;-63
2022/09/13 10:06:38;;;;;;;12.88;6.38;;;39.60;1.00;;;;;;5040053;28;20182;-63
2022/09/13 10:09:12;;;;;;;11.82;6.68;;;40.00;1.00;;;;;;5038935;28;20285;-67
2022/09/13 10:11:41;;;;;;;9.15;6.40;;;39.90;1.00;;;;;;5038886;28;20765;-62
2022/09/13 10:14:36;;;;;;;8.25;5.72;;;39.20;1.00;;;;;;5035888;28;20231;-63
2022/09/13 10:17:27;;;;;;;7.97;5.68;;;38.80;1.00;;;;;;5039954;28;20302;-63
2022/09/13 10:20:00;;;;;;;8.38;6.15;;;39.40;1.00;;;;;;5042663;28;20682;-63
2022/09/13 10:22:30;;;;;;;10.32;7.13;;;39.10;1.00;;;;;;5012993;28;20195;-64
2022/09/13 10:25:22;;;;;;;8.57;5.40;;;39.30;1.00;;;;;;5047554;28;20191;-65
2022/09/13 10:27:53;;;;;;;10.25;5.40;;;40.20;1.00;;;;;;5047224;28;20229;-66
2022/09/13 10:30:37;;;;;;;7.70;6.13;;;39.00;1.00;;;;;;5047637;28;20755;-61
2022/09/13 10:33:06;;;;;;;10.40;5.53;;;36.10;1.00;;;;;;5047146;28;20270;-63
2022/09/13 10:35:33;;;;;;;8.05;5.85;;;37.00;1.00;;;;;;5046303;28;20203;-63
2022/09/13 10:38:00;;;;;;;7.32;5.35;;;36.90;1.00;;;;;;5043730;28;20573;-63
2022/09/13 10:40:32;;;;;;;11.57;6.20;;;36.40;1.00;;;;;;5045736;28;20225;-63
2022/09/13 10:43:02;;;;;;;8.57;5.68;;;36.50;1.00;;;;;;5045271;28;20223;-63
2022/09/13 10:45:30;;;;;;;10.68;6.22;;;37.10;1.00;;;;;;5041744;28;20695;-63
2022/09/13 10:48:09;;;;;;;10.15;5.35;;;36.60;1.00;;;;;;5043056;28;20865;-62
2022/09/13 10:50:36;;;;;;;9.82;5.75;;;35.80;1.00;;;;;;5045015;28;20762;-62
2022/09/13 10:53:24;;;;;;;9.32;5.63;;;35.10;1.00;;;;;;5042355;28;20219;-62
2022/09/13 10:55:54;;;;;;;9.38;5.97;;;34.90;1.00;;;;;;5024404;28;20199;-61
2022/09/13 10:58:21;;;;;;;10.45;6.00;;;35.20;1.00;;;;;;5037058;28;20670;-61
2022/09/13 11:00:53;;;;;;;9.85;6.47;;;35.80;1.00;;;;;;5040645;28;20199;-61
2022/09/13 11:03:42;;;;;;;10.05;6.57;;;35.70;1.00;;;;;;5036967;28;20192;-62
2022/09/13 11:06:25;;;;;;;9.88;6.80;;;34.60;1.00;;;;;;5023597;28;20203;-62
2022/09/13 11:09:57;;;;;;;8.82;5.72;;;34.10;1.00;;;;;;5042028;28;20203;-60
2022/09/13 11:12:47;;;;;;;7.63;6.20;;;34.40;1.00;;;;;;4960470;28;20198;-60
2022/09/13 11:15:49;;;;;;;7.88;6.10;;;34.30;1.00;;;;;;5018028;28;20227;-60
2022/09/13 11:18:36;;;;;;;8.40;6.20;;;35.20;1.00;;;;;;5044732;28;20289;-61
2022/09/13 11:21:23;;;;;;;10.38;6.30;;;34.50;1.00;;;;;;5046639;28;20659;-61
2022/09/13 11:24:13;;;;;;;7.82;6.47;;;33.90;1.00;;;;;;5042919;28;20183;-62
2022/09/13 11:26:45;;;;;;;10.68;6.68;;;33.90;1.00;;;;;;5043964;28;20199;-62
2022/09/13 11:29:37;;;;;;;10.43;6.72;;;34.70;1.00;;;;;;5040085;28;20184;-62
2022/09/13 11:32:23;;;;;;;8.73;6.55;;;34.70;1.00;;;;;;5041911;28;20188;-62
2022/09/13 11:35:21;;;;;;;9.05;6.90;;;35.00;1.00;;;;;;5039611;28;20215;-62
2022/09/13 11:38:13;;;;;;;10.40;6.82;;;34.90;1.00;;;;;;5042469;28;20195;-63
2022/09/13 11:40:55;;;;;;;9.05;6.55;;;34.80;1.00;;;;;;5022591;28;20188;-62
2022/09/13 11:43:28;;;;;;;8.77;7.05;;;33.30;1.00;;;;;;5042603;28;20709;-63
2022/09/13 11:46:07;;;;;;;9.27;6.70;;;32.00;1.00;;;;;;5043247;28;20199;-63
2022/09/13 11:49:01;;;;;;;10.30;7.05;;;31.70;1.00;;;;;;5045299;28;20215;-62
2022/09/13 11:51:52;;;;;;;9.23;7.18;;;31.20;1.00;;;;;;5043690;28;20553;-63
2022/09/13 11:54:35;;;;;;;9.93;8.15;;;30.70;1.00;;;;;;5042511;28;20200;-64
2022/09/13 11:57:07;;;;;;;11.00;8.25;;;30.60;1.00;;;;;;5044952;28;20287;-63
2022/09/13 11:59:45;;;;;;;9.38;6.80;;;30.60;1.00;;;;;;5041268;28;20203;-64
2022/09/13 12:02:29;;;;;;;11.40;7.43;;;31.20;1.00;;;;;;5023735;28;20215;-63
2022/09/13 12:05:06;;;;;;;8.73;7.40;;;30.70;1.00;;;;;;5041579;28;20569;-61
2022/09/13 12:08:05;;;;;;;8.98;7.75;;;30.60;1.00;;;;;;5042194;28;20736;-64
2022/09/13 12:10:50;;;;;;;9.48;6.88;;;29.60;1.00;;;;;;5040458;28;20195;-61
2022/09/13 12:13:25;;;;;;;9.73;6.43;;;29.00;1.00;;;;;;5025256;28;20588;-63
2022/09/13 12:15:58;;;;;;;15.48;7.60;;;28.70;1.00;;;;;;5034836;28;20810;-61
2022/09/13 12:18:41;;;;;;;10.85;7.88;;;28.40;1.00;;;;;;5025959;28;20199;-62
2022/09/13 12:21:18;;;;;;;10.55;7.85;;;28.30;1.00;;;;;;5039147;28;20196;-63
2022/09/13 12:23:59;;;;;;;9.68;7.90;;;28.00;1.00;;;;;;5033478;28;20229;-62
2022/09/13 12:26:34;;;;;;;11.48;7.80;;;27.90;1.00;;;;;;5043304;28;20192;-63
2022/09/13 12:29:18;;;;;;;9.40;7.05;;;27.70;1.00;;;;;;5038971;28;20214;-65
2022/09/13 12:31:45;;;;;;;8.48;7.43;;;28.00;1.00;;;;;;5041517;28;20191;-63
2022/09/13 12:34:33;;;;;;;8.00;6.93;;;28.20;1.00;;;;;;5044025;28;20191;-63
2022/09/13 12:37:27;;;;;;;7.65;6.55;;;28.30;1.00;;;;;;5038631;28;20207;-63
2022/09/13 12:39:55;;;;;;;7.80;7.00;;;28.80;1.00;;;;;;5042256;28;20211;-62
2022/09/13 12:42:54;;;;;;;11.80;7.57;;;28.80;1.00;;;;;;5041616;28;20625;-63
2022/09/13 12:45:48;;;;;;;12.60;7.00;;;28.60;1.00;;;;;;4968080;28;20293;-61
2022/09/13 12:48:27;;;;;;;6.97;6.28;;;28.80;1.00;;;;;;5039873;28;20214;-62
2022/09/13 12:51:13;;;;;;;9.55;7.35;;;29.20;1.00;;;;;;5023711;28;21119;-61
2022/09/13 12:53:58;;;;;;;8.55;7.07;;;28.70;1.00;;;;;;5041216;28;20298;-62
2022/09/13 12:56:58;;;;;;;9.95;7.03;;;28.30;1.00;;;;;;5043365;28;20655;-62
2022/09/13 12:59:34;;;;;;;6.82;6.13;;;27.90;1.00;;;;;;5044728;28;20198;-63
2022/09/13 13:02:29;;;;;;;10.95;6.60;;;27.60;1.00;;;;;;5037611;28;20535;-62
2022/09/13 13:05:01;;;;;;;7.60;6.80;;;27.20;1.00;;;;;;5035840;28;20192;-64
2022/09/13 13:07:30;;;;;;;8.02;5.93;;;26.80;1.00;;;;;;5040782;28;20650;-62
2022/09/13 13:09:57;;;;;;;7.88;6.63;;;27.00;1.00;;;;;;5039334;28;20188;-62
2022/09/13 13:12:37;;;;;;;7.57;5.47;;;27.10;1.00;;;;;;5041010;28;20196;-63
2022/09/13 13:15:30;;;;;;;8.48;6.43;;;27.60;1.00;;;;;;5039890;28;20238;-62
2022/09/13 13:18:16;;;;;;;9.57;7.03;;;27.80;1.00;;;;;;5039155;28;20221;-63
2022/09/13 13:20:54;;;;;;;9.55;7.22;;;27.70;1.00;;;;;;5037951;28;20274;-62
2022/09/13 13:23:22;;;;;;;9.93;6.28;;;27.50;1.00;;;;;;5041071;28;20203;-67
2022/09/13 13:26:09;;;;;;;7.70;6.20;;;27.40;1.00;;;;;;5037649;28;20194;-62
2022/09/13 13:28:42;;;;;;;7.25;5.88;;;27.40;1.00;;;;;;5034077;28;20242;-62
2022/09/13 13:31:29;;;;;;;10.20;6.10;;;27.70;1.00;;;;;;5036585;28;21061;-61
2022/09/13 13:34:05;;;;;;;7.10;5.95;;;27.50;1.00;;;;;;5040819;28;20752;-61